Latest Weather Observations for Williamson

IDQ60801

Issued at 4:32 pm EST Sunday 24 July 2016 (issued every 30 minutes, with the page automatically refreshed every 10 minutes)

About weather observations | Map of weather stations | Latest weather observations for QLD | Other Formats
Station Details ID: 033195 Name: WILLIAMSON Lat: -22.47 Lon: 150.18 Height: 27.6 m
Data from the previous 72 hours. | See also: Recent months at Williamson
Date/Time
EST
Temp
°C
App
Temp
°C
Dew
Point
°C
Rel
Hum
%
Delta-T
°C
Wind Press
QNH
hPa
Press
MSL
hPa
Rain since
9am
mm
Dir  Spd
km/h
Gust
km/h
Spd
kts
Gust
kts
24/04:30pm 25.3 26.0 18.0 64 4.6 NE 11 17 6 9 1013.3 1013.2 0.0
24/04:00pm 26.5 28.0 18.9 63 4.9 NE 9 13 5 7 1013.1 1013.0 0.0
24/03:30pm 27.2 29.0 19.5 62 5.0 NNE 9 13 5 7 1013.0 1012.9 0.0
24/03:00pm 27.6 29.7 19.4 61 5.3 NNE 7 26 4 14 1013.1 1013.0 0.0
24/02:30pm 27.9 29.1 18.3 56 6.1 NW 9 13 5 7 1013.3 1013.2 0.0
24/02:00pm 27.1 28.5 17.3 55 6.1 NNW 6 13 3 7 1013.6 1013.5 0.0
24/01:30pm 26.9 28.0 17.9 57 5.7 NNW 9 13 5 7 1014.1 1014.0 0.0
24/01:00pm 26.7 27.8 18.0 59 5.5 NW 9 19 5 10 1014.5 1014.4 0.0
24/12:30pm 26.2 27.4 18.3 61 5.0 WNW 9 17 5 9 1014.9 1014.8 0.0
24/12:00pm 26.0 27.2 18.2 62 4.9 WNW 9 17 5 9 1015.7 1015.6 0.0
24/11:30am 25.6 26.8 19.0 67 4.2 NNW 11 22 6 12 1016.2 1016.1 0.0
24/11:00am 24.8 26.3 19.0 70 3.7 W 9 13 5 7 1016.5 1016.4 0.0
24/10:30am 24.3 25.7 18.7 71 3.6 NW 9 15 5 8 1016.8 1016.7 0.0
24/10:00am 23.8 24.9 18.9 74 3.1 W 11 15 6 8 1017.0 1016.9 0.0
24/09:30am 23.5 25.2 19.4 78 2.6 NNW 9 13 5 7 1017.0 1016.9 0.0
24/09:00am 22.3 25.1 20.4 89 1.2 NNW 6 9 3 5 1016.7 1016.6 0.2
24/08:30am 21.5 25.1 21.2 98 0.2 NNW 4 7 2 4 1016.5 1016.4 0.2
24/08:00am 20.6 24.5 20.3 98 0.2 CALM 0 0 0 0 1016.3 1016.2 0.2
24/07:30am 18.7 21.7 18.4 98 0.2 CALM 0 0 0 0 1016.0 1015.9 0.2
24/07:00am 17.6 20.1 17.3 98 0.2 CALM 0 0 0 0 1015.6 1015.5 0.2
24/06:30am 17.5 20.0 17.2 98 0.2 CALM 0 0 0 0 1015.3 1015.2 0.2
24/06:00am 17.5 19.6 17.2 98 0.2 ENE 2 6 1 3 1014.8 1014.7 0.2
24/05:30am 17.7 20.3 17.4 98 0.2 CALM 0 0 0 0 1014.7 1014.6 0.2
24/05:00am 17.8 20.4 17.5 98 0.2 CALM 0 0 0 0 1014.2 1014.1 0.2
24/04:30am 18.0 20.7 17.7 98 0.2 CALM 0 0 0 0 1014.1 1014.0 0.2
24/04:00am 18.2 21.0 17.9 98 0.2 CALM 0 0 0 0 1013.9 1013.8 0.2
24/03:30am 18.1 20.8 17.8 98 0.2 CALM 0 0 0 0 1013.9 1013.8 0.2
24/03:00am 18.3 21.1 18.0 98 0.2 CALM 0 0 0 0 1013.8 1013.7 0.2
24/02:30am 18.3 21.1 18.0 98 0.2 CALM 0 0 0 0 1013.7 1013.6 0.2
24/02:00am 18.2 21.0 17.9 98 0.2 CALM 0 0 0 0 1013.9 1013.8 0.2
24/01:30am 18.3 21.1 18.0 98 0.2 CALM 0 0 0 0 1013.9 1013.8 0.2
24/01:00am 18.0 20.7 17.7 98 0.2 CALM 0 0 0 0 1014.3 1014.2 0.2
24/12:30am 17.9 20.5 17.6 98 0.2 CALM 0 0 0 0 1014.4 1014.3 0.2
24/12:00am 17.4 18.7 17.1 98 0.2 ENE 6 7 3 4 1014.3 1014.2 0.2
 
Date/Time
EST
Temp
°C
App
Temp
°C
Dew
Point
°C
Rel
Hum
%
Delta-T
°C
Wind Press
QNH
hPa
Press
MSL
hPa
Rain since
9am
mm
Dir  Spd
km/h
Gust
km/h
Spd
kts
Gust
kts
23/11:30pm 17.3 19.7 17.0 98 0.2 CALM 0 0 0 0 1014.5 1014.4 0.2
23/11:00pm 17.6 20.1 17.3 98 0.2 CALM 0 0 0 0 1014.6 1014.5 0.2
23/10:30pm 17.7 20.3 17.4 98 0.2 CALM 0 0 0 0 1014.9 1014.8 0.2
23/10:00pm 18.1 20.8 17.8 98 0.2 CALM 0 0 0 0 1014.9 1014.8 0.2
23/09:30pm 18.2 21.0 17.9 98 0.2 CALM 0 0 0 0 1014.7 1014.6 0.2
23/09:00pm 18.6 21.5 18.3 98 0.2 CALM 0 0 0 0 1014.6 1014.5 0.2
23/08:30pm 18.7 21.7 18.4 98 0.2 CALM 0 0 0 0 1014.4 1014.3 0.2
23/08:00pm 19.1 22.3 18.8 98 0.2 CALM 0 0 0 0 1014.0 1013.9 0.2
23/07:30pm 19.6 22.8 18.9 96 0.4 CALM 0 0 0 0 1013.8 1013.7 0.2
23/07:00pm 19.9 22.3 18.7 93 0.7 NNE 4 7 2 4 1013.2 1013.1 0.2
23/06:30pm 20.6 23.8 18.9 90 1.1 CALM 0 0 0 0 1013.0 1012.9 0.2
23/06:00pm 21.4 24.7 19.0 86 1.5 CALM 0 2 0 1 1013.0 1012.9 0.2
23/05:30pm 22.7 24.7 18.7 78 2.5 NNE 6 9 3 5 1012.8 1012.7 0.2
23/05:00pm 24.2 26.2 19.1 73 3.3 NE 7 11 4 6 1012.7 1012.6 0.2
23/04:30pm 25.3 26.4 17.2 61 5.0 NW 7 11 4 6 1012.5 1012.4 0.2
23/04:00pm 25.5 26.9 17.9 63 4.8 WNW 7 13 4 7 1012.7 1012.6 0.2
23/03:30pm 25.3 26.0 18.0 64 4.6 NW 11 17 6 9 1012.7 1012.6 0.2
23/03:00pm 25.3 26.2 18.5 66 4.3 WNW 11 19 6 10 1012.8 1012.7 0.2
23/02:30pm 24.9 26.5 19.1 70 3.7 NNE 9 15 5 8 1013.0 1012.9 0.2
23/02:00pm 24.2 25.4 19.1 73 3.3 NNE 11 15 6 8 1013.2 1013.1 0.2
23/01:30pm 24.3 25.9 19.1 73 3.3 NNE 9 15 5 8 1013.4 1013.3 0.2
23/01:00pm 24.5 25.4 18.4 69 3.9 N 11 19 6 10 1013.9 1013.8 0.2
23/12:30pm 24.2 25.3 19.7 76 2.9 NNE 13 19 7 10 1014.3 1014.2 0.2
23/12:00pm 24.9 26.3 19.5 72 3.5 N 11 17 6 9 1014.6 1014.5 0.2
23/11:30am 23.6 24.2 18.7 74 3.1 WNW 13 17 7 9 1015.2 1015.1 0.2
23/11:00am 23.9 24.8 18.5 72 3.4 NW 11 17 6 9 1015.5 1015.4 0.0
23/10:30am 23.4 24.8 19.5 79 2.5 W 11 17 6 9 1015.9 1015.8 0.0
23/10:00am 21.7 23.4 19.3 86 1.5 NW 9 15 5 8 1016.1 1016.0 0.0
23/09:30am 20.4 23.0 20.1 98 0.2 NW 6 11 3 6 1016.3 1016.2 0.0
23/09:00am 19.7 23.1 19.4 98 0.2 CALM 0 6 0 3 1016.4 1016.3 0.0
23/08:30am 19.1 21.9 18.8 98 0.2 NW 2 6 1 3 1016.2 1016.1 0.0
23/08:00am 18.9 21.6 18.6 98 0.2 NNW 2 7 1 4 1016.1 1016.0 0.0
23/07:30am 18.8 21.8 18.5 98 0.2 CALM 0 0 0 0 1015.9 1015.8 0.0
23/07:00am 18.6 20.8 18.3 98 0.2 SSW 4 6 2 3 1015.6 1015.5 0.0
23/06:30am 18.4 21.3 18.1 98 0.2 CALM 0 0 0 0 1015.2 1015.1 0.0
23/06:00am 18.2 19.6 17.9 98 0.2 SSW 7 9 4 5 1015.0 1014.9 0.0
23/05:30am 17.9 20.5 17.6 98 0.2 CALM 0 0 0 0 1014.4 1014.3 0.0
23/05:00am 17.7 20.3 17.4 98 0.2 CALM 0 0 0 0 1014.3 1014.2 0.0
23/04:30am 17.2 19.6 16.9 98 0.2 CALM 0 0 0 0 1014.3 1014.2 0.0
23/04:00am 16.7 18.9 16.4 98 0.2 CALM 0 0 0 0 1014.2 1014.1 0.0
23/03:30am 16.3 18.3 16.0 98 0.2 CALM 0 0 0 0 1014.2 1014.1 0.0
23/03:00am 15.9 17.7 15.6 98 0.2 CALM 0 0 0 0 1014.2 1014.1 0.0
23/02:30am 15.9 17.7 15.6 98 0.2 CALM 0 0 0 0 1014.3 1014.2 0.0
23/02:00am 16.0 17.9 15.7 98 0.2 CALM 0 0 0 0 1014.4 1014.3 0.0
23/01:30am 16.0 17.9 15.7 98 0.2 CALM 0 0 0 0 1014.5 1014.4 0.0
23/01:00am 16.4 18.4 16.1 98 0.2 CALM 0 0 0 0 1014.7 1014.6 0.0
23/12:30am 16.5 18.6 16.2 98 0.2 CALM 0 0 0 0 1014.9 1014.8 0.0
23/12:00am 16.8 19.0 16.5 98 0.2 CALM 0 0 0 0 1015.0 1014.9 0.0
 
Date/Time
EST
Temp
°C
App
Temp
°C
Dew
Point
°C
Rel
Hum
%
Delta-T
°C
Wind Press
QNH
hPa
Press
MSL
hPa
Rain since
9am
mm
Dir  Spd
km/h
Gust
km/h
Spd
kts
Gust
kts
22/11:30pm 17.0 19.3 16.7 98 0.2 CALM 0 0 0 0 1015.2 1015.1 0.0
22/11:00pm 17.4 19.8 17.1 98 0.2 CALM 0 0 0 0 1015.3 1015.2 0.0
22/10:30pm 17.6 20.1 17.3 98 0.2 CALM 0 0 0 0 1015.5 1015.4 0.0
22/10:00pm 17.7 20.3 17.4 98 0.2 CALM 0 0 0 0 1015.5 1015.4 0.0
22/09:30pm 17.9 20.5 17.6 98 0.2 CALM 0 0 0 0 1015.5 1015.4 0.0
22/09:00pm 18.1 20.4 17.8 98 0.2 NE 2 6 1 3 1015.5 1015.4 0.0
22/08:30pm 18.5 20.6 18.0 97 0.3 NE 4 7 2 4 1015.6 1015.5 0.0
22/08:00pm 19.0 21.9 18.2 95 0.5 CALM 0 0 0 0 1015.6 1015.5 0.0
22/07:30pm 19.8 21.8 18.8 94 0.6 ENE 6 9 3 5 1015.5 1015.4 0.0
22/07:00pm 20.1 22.2 18.9 93 0.8 NNE 6 7 3 4 1015.2 1015.1 0.0
22/06:30pm 20.4 22.3 18.5 89 1.2 NE 6 7 3 4 1015.0 1014.9 0.0
22/06:00pm 20.8 22.7 17.6 82 2.0 NE 4 7 2 4 1014.9 1014.8 0.0
22/05:30pm 22.1 23.4 17.0 73 3.1 NNE 6 9 3 5 1014.8 1014.7 0.0
22/05:00pm 23.1 23.9 16.4 66 4.1 NNE 7 13 4 7 1014.6 1014.5 0.0
22/04:30pm 23.9 24.1 15.7 60 5.0 NNE 9 13 5 7 1014.5 1014.4 0.0
22/04:00pm 24.4 24.4 15.1 56 5.6 NNE 9 15 5 8 1014.4 1014.3 0.0
22/03:30pm 25.2 25.0 15.8 56 5.7 NNE 11 17 6 9 1014.3 1014.2 0.0
22/03:00pm 25.1 24.3 15.1 53 6.0 N 13 19 7 10 1014.2 1014.1 0.0
22/02:30pm 25.5 25.3 14.6 51 6.5 N 9 15 5 8 1014.4 1014.3 0.0
22/02:00pm 25.6 25.3 14.4 50 6.7 N 9 17 5 9 1014.7 1014.6 0.0
22/01:30pm 25.5 25.1 14.0 49 6.8 NNW 9 15 5 8 1015.0 1014.9 0.0
22/01:00pm 25.2 24.6 14.6 51 6.3 N 11 19 6 10 1015.4 1015.3 0.0
22/12:30pm 25.6 25.3 14.4 50 6.7 NE 9 19 5 10 1015.8 1015.7 0.0
22/12:00pm 25.3 25.2 13.8 49 6.8 ENE 7 13 4 7 1016.2 1016.1 0.0
22/11:30am 25.4 26.6 14.8 52 6.4 NE 2 13 1 7 1016.7 1016.6 0.0
22/11:00am 24.0 25.6 16.8 64 4.4 ESE 4 9 2 5 1017.0 1016.9 0.0
22/10:30am 22.9 25.0 17.1 70 3.6 WNW 2 9 1 5 1017.4 1017.3 0.0
22/10:00am 22.7 24.7 16.9 70 3.6 W 2 9 1 5 1017.6 1017.5 0.0
22/09:30am 21.9 24.3 17.9 78 2.5 SSW 2 6 1 3 1017.8 1017.7 0.0
22/09:00am 20.9 23.7 17.9 83 1.9 CALM 0 0 0 0 1017.9 1017.8 0.0
22/08:30am 19.0 21.5 17.3 90 1.0 CALM 0 0 0 0 1017.7 1017.6 0.0
22/08:00am 17.8 20.0 17.5 98 0.2 SSE 2 6 1 3 1017.7 1017.6 0.0
22/07:30am 16.0 17.9 15.7 98 0.2 CALM 0 0 0 0 1017.6 1017.5 0.0
22/07:00am 14.8 16.2 14.5 98 0.2 CALM 0 0 0 0 1017.4 1017.3 0.0
22/06:30am 14.6 16.0 14.3 98 0.2 CALM 0 0 0 0 1017.4 1017.3 0.0
22/06:00am 14.6 16.0 14.3 98 0.2 CALM 0 0 0 0 1017.3 1017.2 0.0
22/05:30am 15.0 16.5 14.7 98 0.2 CALM 0 0 0 0 1017.1 1017.0 0.0
22/05:00am 15.1 16.7 14.8 98 0.2 CALM 0 0 0 0 1017.0 1016.9 0.0
22/04:30am 15.1 16.7 14.8 98 0.2 CALM 0 0 0 0 1016.8 1016.7 0.0
22/04:00am 15.2 16.8 14.9 98 0.2 CALM 0 6 0 3 1016.9 1016.8 0.0
22/03:30am 15.5 17.2 15.2 98 0.2 CALM 0 0 0 0 1017.1 1017.0 0.0
22/03:00am 15.4 17.1 15.1 98 0.2 CALM 0 0 0 0 1017.1 1017.0 0.0
22/02:30am 15.6 17.3 15.3 98 0.2 CALM 0 0 0 0 1017.3 1017.2 0.0
22/02:00am 15.8 17.6 15.5 98 0.2 CALM 0 0 0 0 1017.4 1017.3 0.0
22/01:30am 16.1 18.0 15.8 98 0.2 CALM 0 0 0 0 1017.6 1017.5 0.0
22/01:00am 16.4 18.4 16.1 98 0.2 CALM 0 0 0 0 1017.8 1017.7 0.0
22/12:30am 16.7 18.9 16.4 98 0.2 CALM 0 0 0 0 1018.0 1017.9 0.0
22/12:00am 17.0 19.3 16.7 98 0.2 CALM 0 0 0 0 1018.0 1017.9 0.0
 
Date/Time
EST
Temp
°C
App
Temp
°C
Dew
Point
°C
Rel
Hum
%
Delta-T
°C
Wind Press
QNH
hPa
Press
MSL
hPa
Rain since
9am
mm
Dir  Spd
km/h
Gust
km/h
Spd
kts
Gust
kts
21/11:30pm 17.1 19.4 16.8 98 0.2 CALM 0 0 0 0 1018.1 1018.0 0.0
21/11:00pm 17.5 20.0 17.2 98 0.2 CALM 0 0 0 0 1018.2 1018.1 0.0
21/10:30pm 17.8 20.4 17.5 98 0.2 CALM 0 0 0 0 1018.3 1018.2 0.0
21/10:00pm 18.1 20.7 17.6 97 0.3 CALM 0 0 0 0 1018.4 1018.3 0.0
21/09:30pm 18.5 21.3 17.9 96 0.4 CALM 0 0 0 0 1018.4 1018.3 0.0
21/09:00pm 18.8 21.1 17.8 94 0.6 NNE 2 6 1 3 1018.4 1018.3 0.0
21/08:30pm 19.6 22.5 18.3 92 0.8 CALM 0 0 0 0 1018.2 1018.1 0.0
21/08:00pm 19.8 22.9 18.6 93 0.7 CALM 0 0 0 0 1018.1 1018.0 0.0
21/07:30pm 19.8 22.5 17.8 88 1.2 CALM 0 0 0 0 1017.8 1017.7 0.0
21/07:00pm 20.8 23.6 18.0 84 1.7 CALM 0 0 0 0 1017.5 1017.4 0.0
21/06:30pm 21.5 24.4 18.1 81 2.1 CALM 0 0 0 0 1017.2 1017.1 0.0
21/06:00pm 21.8 23.8 17.8 78 2.5 NNE 4 6 2 3 1017.0 1016.9 0.0
21/05:30pm 22.6 23.8 16.9 70 3.5 NE 6 11 3 6 1016.7 1016.6 0.0
21/05:00pm 23.2 23.4 15.8 63 4.5 N 9 17 5 9 1016.5 1016.4 0.0

Other Formats:

Comma delimited format used in spreadsheet applications
http://www.bom.gov.au/fwo/IDQ60801/IDQ60801.95370.axf

JavaScript Object Notation format (JSON) in row-major order
http://www.bom.gov.au/fwo/IDQ60801/IDQ60801.95370.json